createdAt,value
2018-08-11T00:00:46.449Z,20.01
2018-08-11T00:01:46.373Z,19.97
2018-08-11T00:02:46.336Z,19.95
2018-08-11T00:03:46.265Z,19.97
2018-08-11T00:04:46.129Z,19.89
2018-08-11T00:05:46.052Z,19.87
2018-08-11T00:06:45.974Z,19.90
2018-08-11T00:07:45.915Z,19.87
2018-08-11T00:08:45.817Z,19.95
2018-08-11T00:09:45.762Z,19.94
2018-08-11T00:10:45.656Z,19.95
2018-08-11T00:11:45.591Z,19.92
2018-08-11T00:12:45.504Z,19.94
2018-08-11T00:13:45.465Z,19.94
2018-08-11T00:14:45.336Z,19.92
2018-08-11T00:17:27.597Z,20.13
2018-08-11T00:18:27.571Z,20.15
2018-08-11T00:19:27.428Z,20.15
2018-08-11T00:20:27.359Z,20.13
2018-08-11T00:21:27.262Z,20.16
2018-08-11T00:22:27.195Z,20.13
2018-08-11T00:23:27.168Z,20.05
2018-08-11T00:24:27.072Z,20.04
2018-08-11T00:25:26.958Z,19.92
2018-08-11T00:26:26.887Z,19.80
2018-08-11T00:27:26.790Z,19.83
2018-08-11T00:28:26.748Z,19.80
2018-08-11T00:29:26.635Z,19.75
2018-08-11T00:30:26.594Z,19.71
2018-08-11T00:31:26.488Z,19.78
2018-08-11T00:32:26.411Z,19.72
2018-08-11T00:33:26.401Z,19.70
2018-08-11T00:34:26.258Z,19.71
2018-08-11T00:35:26.193Z,19.62
2018-08-11T00:36:26.127Z,19.61
2018-08-11T00:37:26.010Z,19.60
2018-08-11T00:38:25.968Z,19.62
2018-08-11T00:39:25.850Z,19.57
2018-08-11T00:40:26.886Z,19.65
2018-08-11T00:41:25.688Z,19.65
2018-08-11T00:42:25.618Z,19.62
2018-08-11T00:43:25.530Z,19.60
2018-08-11T00:44:26.498Z,19.68
2018-08-11T00:45:25.500Z,19.67
2018-08-11T00:46:25.307Z,19.60
2018-08-11T00:47:25.218Z,19.70
2018-08-11T00:50:07.108Z,19.76
2018-08-11T00:51:07.063Z,19.61
2018-08-11T00:52:06.943Z,19.57
2018-08-11T00:53:06.865Z,19.46
2018-08-11T00:54:06.785Z,19.38
2018-08-11T00:55:06.893Z,19.30
2018-08-11T00:56:06.616Z,19.12
2018-08-11T00:58:48.609Z,18.84
2018-08-11T00:59:48.530Z,18.82
2018-08-11T01:00:48.460Z,18.65
2018-08-11T01:01:48.364Z,18.56
2018-08-11T01:02:48.292Z,18.65
2018-08-11T01:05:30.135Z,18.60
2018-08-11T01:06:30.039Z,18.62
2018-08-11T01:07:29.936Z,18.41
2018-08-11T01:08:29.881Z,18.20
2018-08-11T01:09:29.790Z,18.21
2018-08-11T01:10:30.727Z,18.19
2018-08-11T01:11:29.634Z,18.20
2018-08-11T01:12:29.546Z,18.14
2018-08-11T01:13:29.481Z,18.11
2018-08-11T01:14:29.403Z,17.92
2018-08-11T01:15:29.380Z,17.68
2018-08-11T01:16:30.244Z,17.71
2018-08-11T01:17:29.179Z,17.55
2018-08-11T01:18:29.078Z,17.38
2018-08-11T01:19:28.999Z,17.20
2018-08-11T01:20:28.915Z,17.06
2018-08-11T01:21:28.855Z,17.02
2018-08-11T01:22:28.764Z,16.85
2018-08-11T01:23:28.705Z,16.88
2018-08-11T01:24:28.597Z,16.69
2018-08-11T01:25:28.512Z,16.69
2018-08-11T01:26:28.466Z,16.69
2018-08-11T01:27:28.436Z,16.63
2018-08-11T01:28:28.297Z,16.72
2018-08-11T01:29:28.204Z,16.60
2018-08-11T01:30:28.130Z,16.66
2018-08-11T01:31:28.030Z,16.55
2018-08-11T01:32:28.078Z,16.52
2018-08-11T01:33:27.920Z,16.50
2018-08-11T01:34:27.858Z,16.44
2018-08-11T01:35:27.726Z,16.45
2018-08-11T01:36:27.655Z,16.41
2018-08-11T01:37:27.594Z,16.40
2018-08-11T01:38:27.521Z,16.33
2018-08-11T01:39:27.399Z,16.25
2018-08-11T01:42:09.610Z,16.22
2018-08-11T01:43:09.575Z,16.14
2018-08-11T01:44:09.456Z,16.03
2018-08-11T01:45:09.377Z,16.08
2018-08-11T01:46:09.304Z,15.92
2018-08-11T01:48:51.129Z,16.07
2018-08-11T01:49:51.033Z,16.01
2018-08-11T01:50:50.972Z,15.86
2018-08-11T01:51:50.874Z,15.85
2018-08-11T01:52:50.841Z,15.95
2018-08-11T01:55:32.610Z,15.99
2018-08-11T01:56:32.547Z,15.85
2018-08-11T01:57:32.464Z,15.92
2018-08-11T01:58:32.418Z,15.88
2018-08-11T01:59:32.298Z,15.92
2018-08-11T02:00:32.215Z,15.92
2018-08-11T02:01:32.151Z,15.80
2018-08-11T02:02:32.086Z,15.80
2018-08-11T02:03:31.994Z,15.80
2018-08-11T02:06:14.159Z,15.74
2018-08-11T02:08:56.157Z,15.73
2018-08-11T02:11:38.133Z,15.81
2018-08-11T02:12:38.070Z,15.80
2018-08-11T02:13:37.985Z,15.86
2018-08-11T02:16:20.115Z,15.77
2018-08-11T02:17:20.047Z,15.77
2018-08-11T02:18:19.955Z,15.84
2018-08-11T02:19:21.902Z,15.85
2018-08-11T02:20:19.792Z,15.84
2018-08-11T02:23:01.634Z,15.85
2018-08-11T02:25:43.641Z,15.84
2018-08-11T02:26:43.589Z,15.80
2018-08-11T02:27:43.461Z,15.84
2018-08-11T02:30:25.644Z,15.88
2018-08-11T02:31:25.539Z,15.91
2018-08-11T02:32:25.465Z,15.96
2018-08-11T02:33:25.402Z,15.86
2018-08-11T02:34:25.389Z,15.81
2018-08-11T02:35:25.264Z,15.88
2018-08-11T02:36:25.230Z,15.96
2018-08-11T02:39:07.203Z,15.91
2018-08-11T02:40:07.069Z,16.06
2018-08-11T02:41:06.972Z,15.91
2018-08-11T02:42:06.896Z,15.98
2018-08-11T02:43:06.817Z,15.99
2018-08-11T02:44:06.727Z,15.91
2018-08-11T02:45:06.689Z,15.88
2018-08-11T02:46:06.608Z,15.96
2018-08-11T02:47:06.493Z,15.78
2018-08-11T02:48:06.423Z,15.93
2018-08-11T02:49:06.335Z,15.81
2018-08-11T02:50:06.308Z,15.92
2018-08-11T02:51:06.319Z,15.81
2018-08-11T02:53:48.197Z,15.77
2018-08-11T02:54:48.062Z,15.70
2018-08-11T02:55:48.013Z,15.71
2018-08-11T02:56:47.899Z,15.70
2018-08-11T02:57:47.811Z,15.67
2018-08-11T02:58:47.738Z,15.62
2018-08-11T02:59:47.648Z,15.43
2018-08-11T03:00:48.591Z,15.38
2018-08-11T03:01:47.489Z,15.48
2018-08-11T03:04:29.634Z,15.44
2018-08-11T03:05:29.555Z,15.46
2018-08-11T03:06:29.497Z,15.56
2018-08-11T03:09:11.639Z,15.44
2018-08-11T03:10:11.722Z,15.58
2018-08-11T03:11:11.522Z,15.53
2018-08-11T03:12:11.425Z,15.53
2018-08-11T03:13:11.303Z,15.41
2018-08-11T03:14:11.346Z,15.38
2018-08-11T03:15:11.157Z,15.41
2018-08-11T03:16:11.108Z,15.35
2018-08-11T03:17:11.048Z,15.43
2018-08-11T03:18:10.935Z,15.35
2018-08-11T03:19:10.831Z,15.40
2018-08-11T03:20:10.776Z,15.33
2018-08-11T03:21:10.684Z,15.43
2018-08-11T03:22:10.610Z,15.40
2018-08-11T03:23:10.538Z,15.38
2018-08-11T03:24:10.452Z,15.41
2018-08-11T03:25:10.359Z,15.34
2018-08-11T03:26:10.290Z,15.28
2018-08-11T03:27:10.204Z,15.33
2018-08-11T03:28:10.139Z,15.30
2018-08-11T03:29:10.034Z,15.28
2018-08-11T03:30:09.967Z,15.25
2018-08-11T03:31:09.920Z,15.40
2018-08-11T03:32:09.832Z,15.31
2018-08-11T03:33:09.716Z,15.38
2018-08-11T03:34:09.754Z,15.35
2018-08-11T03:35:09.582Z,15.41
2018-08-11T03:36:09.486Z,15.38
2018-08-11T03:37:09.423Z,15.44
2018-08-11T03:38:09.349Z,15.40
2018-08-11T03:39:09.272Z,15.37
2018-08-11T03:40:09.166Z,15.28
2018-08-11T03:41:09.088Z,15.28
2018-08-11T03:42:09.013Z,15.31
2018-08-11T03:43:08.928Z,15.38
2018-08-11T03:44:08.874Z,15.40
2018-08-11T03:45:08.769Z,15.33
2018-08-11T03:46:08.901Z,15.38
2018-08-11T03:47:08.611Z,15.38
2018-08-11T03:48:08.545Z,15.34
2018-08-11T03:49:08.468Z,15.37
2018-08-11T03:50:08.397Z,15.33
2018-08-11T03:51:08.354Z,15.35
2018-08-11T03:52:08.298Z,15.41
2018-08-11T03:53:08.162Z,15.44
2018-08-11T03:54:08.060Z,15.37
2018-08-11T03:55:07.968Z,15.33
2018-08-11T03:57:50.171Z,15.31
2018-08-11T03:58:50.071Z,15.40
2018-08-11T03:59:49.999Z,15.35
2018-08-11T04:00:49.924Z,15.43
2018-08-11T04:01:49.835Z,15.38
2018-08-11T04:02:49.770Z,15.48
2018-08-11T04:03:49.685Z,15.48
2018-08-11T04:04:49.620Z,15.44
2018-08-11T04:05:49.509Z,15.52
2018-08-11T04:08:31.666Z,15.53
2018-08-11T04:09:31.605Z,15.44
2018-08-11T04:10:31.486Z,15.56
2018-08-11T04:11:31.410Z,15.67
2018-08-11T04:12:31.323Z,15.68
2018-08-11T04:13:31.259Z,15.76
2018-08-11T04:14:31.183Z,15.70
2018-08-11T04:17:13.235Z,15.85
2018-08-11T04:18:13.085Z,15.89
2018-08-11T04:19:13.009Z,15.93
2018-08-11T04:20:12.921Z,15.93
2018-08-11T04:21:12.819Z,15.92
2018-08-11T04:23:54.645Z,16.03
2018-08-11T04:24:54.596Z,16.11
2018-08-11T04:25:54.486Z,16.11
2018-08-11T04:26:54.419Z,16.07
2018-08-11T04:27:54.317Z,16.06
2018-08-11T04:30:36.165Z,16.13
2018-08-11T04:33:18.167Z,16.10
2018-08-11T04:36:00.294Z,16.17
2018-08-11T04:38:42.190Z,16.11
2018-08-11T04:41:24.171Z,16.25
2018-08-11T04:42:24.096Z,16.22
2018-08-11T04:43:24.001Z,16.17
2018-08-11T04:46:06.184Z,16.07
2018-08-11T04:47:06.087Z,16.25
2018-08-11T04:48:06.024Z,16.16
2018-08-11T04:49:05.924Z,16.08
2018-08-11T04:50:05.832Z,16.08
2018-08-11T04:51:05.813Z,16.10
2018-08-11T04:52:05.668Z,15.91
2018-08-11T04:53:05.620Z,15.78
2018-08-11T04:54:05.516Z,15.91
2018-08-11T04:55:05.449Z,15.81
2018-08-11T04:56:05.399Z,15.81
2018-08-11T04:57:06.295Z,16.01
2018-08-11T04:58:05.196Z,15.93
2018-08-11T04:59:05.128Z,15.96
2018-08-11T05:00:05.039Z,15.98
2018-08-11T05:01:04.988Z,15.99
2018-08-11T05:02:04.876Z,16.10
2018-08-11T05:03:04.819Z,16.17
2018-08-11T05:04:04.716Z,16.17
2018-08-11T05:05:04.645Z,16.10
2018-08-11T05:06:04.597Z,16.13
2018-08-11T05:07:04.543Z,16.22
2018-08-11T05:08:04.431Z,16.30
2018-08-11T05:09:04.337Z,16.37
2018-08-11T05:10:04.250Z,16.37
2018-08-11T05:12:46.213Z,16.33
2018-08-11T05:13:46.083Z,16.37
2018-08-11T05:14:45.998Z,16.40
2018-08-11T05:15:45.930Z,16.47
2018-08-11T05:16:45.851Z,16.60
2018-08-11T05:17:45.789Z,16.65
2018-08-11T05:18:45.699Z,16.72
2018-08-11T05:21:27.657Z,16.84
2018-08-11T05:22:27.630Z,16.92
2018-08-11T05:23:27.530Z,16.98
2018-08-11T05:24:27.434Z,16.99
2018-08-11T05:25:27.348Z,16.99
2018-08-11T05:28:09.200Z,17.00
2018-08-11T05:29:09.088Z,17.03
2018-08-11T05:30:09.123Z,17.02
2018-08-11T05:31:08.942Z,16.96
2018-08-11T05:32:08.873Z,17.18
2018-08-11T05:33:08.826Z,17.06
2018-08-11T05:34:08.687Z,17.12
2018-08-11T05:35:08.639Z,17.15
2018-08-11T05:36:08.527Z,17.00
2018-08-11T05:37:09.475Z,17.03
2018-08-11T05:38:08.390Z,17.06
2018-08-11T05:40:50.667Z,16.82
2018-08-11T05:41:50.621Z,16.82
2018-08-11T05:42:50.540Z,16.82
2018-08-11T05:45:32.709Z,16.95
2018-08-11T05:46:32.633Z,16.90
2018-08-11T05:47:32.552Z,16.91
2018-08-11T05:48:32.461Z,16.91
2018-08-11T05:49:32.365Z,16.87
2018-08-11T05:52:14.176Z,17.06
2018-08-11T05:53:14.128Z,16.87
2018-08-11T05:54:14.005Z,16.87
2018-08-11T05:56:56.192Z,16.72
2018-08-11T05:57:56.137Z,16.87
2018-08-11T05:58:56.019Z,17.06
2018-08-11T05:59:55.949Z,17.09
2018-08-11T06:00:55.872Z,17.30
2018-08-11T06:01:55.791Z,17.25
2018-08-11T06:02:55.731Z,17.32
2018-08-11T06:03:55.698Z,17.36
2018-08-11T06:04:55.551Z,17.39
2018-08-11T06:07:37.684Z,17.33
2018-08-11T06:08:37.633Z,17.49
2018-08-11T06:09:37.521Z,17.46
2018-08-11T06:10:37.568Z,17.47
2018-08-11T06:11:37.366Z,18.10
2018-08-11T06:14:19.221Z,19.68
2018-08-11T06:15:19.103Z,20.50
2018-08-11T06:16:19.029Z,20.90
2018-08-11T06:17:18.955Z,21.37
2018-08-11T06:18:18.917Z,20.81
2018-08-11T06:19:18.777Z,20.76
2018-08-11T06:20:18.707Z,21.49
2018-08-11T06:21:18.623Z,21.31
2018-08-11T06:22:18.549Z,21.53
2018-08-11T06:23:18.603Z,21.58
2018-08-11T06:24:18.440Z,20.72
2018-08-11T06:25:18.324Z,20.98
2018-08-11T06:26:18.234Z,21.22
2018-08-11T06:29:00.206Z,20.15
2018-08-11T06:30:00.123Z,20.96
2018-08-11T06:31:00.039Z,21.03
2018-08-11T06:32:00.009Z,21.33
2018-08-11T06:32:59.906Z,20.69
2018-08-11T06:33:59.843Z,20.25
2018-08-11T06:34:59.715Z,19.80
2018-08-11T06:35:59.659Z,19.57
2018-08-11T06:36:59.578Z,19.30
2018-08-11T06:37:59.526Z,19.25
2018-08-11T06:38:59.409Z,19.15
2018-08-11T06:39:59.353Z,19.13
2018-08-11T06:40:59.379Z,19.07
2018-08-11T06:43:41.184Z,19.17
2018-08-11T06:44:42.123Z,19.68
2018-08-11T06:45:41.028Z,19.97
2018-08-11T06:48:23.200Z,18.79
2018-08-11T06:49:23.154Z,18.93
2018-08-11T06:50:23.060Z,18.60
2018-08-11T06:51:22.960Z,18.74
2018-08-11T06:52:22.888Z,18.47
2018-08-11T06:53:22.815Z,18.36
2018-08-11T06:54:22.719Z,18.79
2018-08-11T06:55:23.669Z,19.65
2018-08-11T06:56:22.567Z,20.82
2018-08-11T06:57:22.510Z,21.77
2018-08-11T06:58:22.416Z,22.30
2018-08-11T06:59:22.335Z,23.21
2018-08-11T07:00:22.262Z,23.69
2018-08-11T07:03:04.209Z,20.98
2018-08-11T07:04:04.136Z,20.31
2018-08-11T07:05:04.042Z,20.79
2018-08-11T07:06:03.981Z,22.29
2018-08-11T07:07:03.928Z,22.54
2018-08-11T07:08:03.829Z,23.11
2018-08-11T07:09:03.733Z,23.71
2018-08-11T07:10:03.661Z,24.37
2018-08-11T07:11:03.597Z,23.87
2018-08-11T07:12:03.507Z,22.35
2018-08-11T07:13:03.428Z,22.89
2018-08-11T07:14:03.354Z,21.85
2018-08-11T07:15:03.269Z,22.79
2018-08-11T07:16:04.244Z,23.56
2018-08-11T07:17:03.125Z,24.14
2018-08-11T07:18:03.124Z,24.26
2018-08-11T07:19:03.105Z,24.04
2018-08-11T07:20:02.897Z,24.08
2018-08-11T07:21:02.842Z,24.26
2018-08-11T07:22:02.754Z,23.35
2018-08-11T07:23:02.672Z,23.79
2018-08-11T07:24:02.600Z,24.24
2018-08-11T07:25:02.521Z,25.16
2018-08-11T07:26:02.462Z,25.09
2018-08-11T07:27:02.381Z,24.97
2018-08-11T07:28:02.308Z,24.48
2018-08-11T07:29:02.221Z,24.80
2018-08-11T07:30:02.148Z,24.41
2018-08-11T07:31:02.298Z,24.71
2018-08-11T07:32:02.030Z,23.50
2018-08-11T07:33:01.912Z,22.46
2018-08-11T07:34:01.856Z,21.90
2018-08-11T07:35:01.789Z,23.22
2018-08-11T07:36:01.793Z,23.87
2018-08-11T07:37:01.631Z,24.75
2018-08-11T07:38:01.560Z,25.05
2018-08-11T07:39:01.466Z,23.41
2018-08-11T07:41:43.751Z,24.48
2018-08-11T07:42:43.743Z,23.75
2018-08-11T07:43:43.555Z,24.12
2018-08-11T07:44:43.489Z,24.36
2018-08-11T07:45:43.411Z,24.56
2018-08-11T07:46:43.362Z,24.84
2018-08-11T07:47:43.325Z,25.11
2018-08-11T07:48:43.190Z,24.92
2018-08-11T07:49:43.108Z,25.42
2018-08-11T07:50:43.065Z,25.60
2018-08-11T07:51:43.088Z,25.94
2018-08-11T07:52:42.936Z,26.54
2018-08-11T07:53:42.836Z,26.86
2018-08-11T07:54:42.765Z,26.46
2018-08-11T07:55:42.686Z,26.71
2018-08-11T07:56:42.665Z,26.96
2018-08-11T07:57:42.570Z,27.11
2018-08-11T07:58:42.474Z,27.30
2018-08-11T07:59:42.384Z,26.59
2018-08-11T08:00:42.321Z,24.80
2018-08-11T08:01:42.251Z,25.90
2018-08-11T08:02:42.233Z,24.84
2018-08-11T08:03:42.107Z,24.83
2018-08-11T08:04:42.024Z,23.74
2018-08-11T08:05:41.943Z,24.42
2018-08-11T08:06:41.907Z,23.59
2018-08-11T08:07:41.813Z,24.48
2018-08-11T08:08:42.779Z,23.62
2018-08-11T08:09:41.664Z,24.56
2018-08-11T08:12:23.723Z,25.60
2018-08-11T08:13:23.653Z,26.16
2018-08-11T08:14:23.597Z,26.17
2018-08-11T08:15:23.510Z,26.04
2018-08-11T08:16:23.430Z,26.56
2018-08-11T08:17:23.369Z,27.18
2018-08-11T08:18:23.294Z,27.30
2018-08-11T08:19:23.264Z,26.79
2018-08-11T08:20:23.144Z,26.11
2018-08-11T08:21:23.218Z,26.28
2018-08-11T08:22:23.002Z,25.90
2018-08-11T08:23:22.941Z,26.06
2018-08-11T08:24:22.890Z,26.68
2018-08-11T08:25:22.793Z,26.98
2018-08-11T08:26:22.868Z,25.46
2018-08-11T08:27:22.650Z,25.05
2018-08-11T08:28:22.581Z,25.61
2018-08-11T08:29:22.546Z,26.28
2018-08-11T08:30:22.437Z,26.28
2018-08-11T08:31:22.366Z,26.04
2018-08-11T08:32:22.315Z,26.08
2018-08-11T08:33:22.229Z,24.74
2018-08-11T08:34:22.292Z,23.47
2018-08-11T08:35:23.103Z,22.59
2018-08-11T08:36:22.026Z,21.99
2018-08-11T08:39:04.280Z,25.16
2018-08-11T08:40:04.189Z,25.14
2018-08-11T08:41:04.093Z,25.24
2018-08-11T08:42:04.036Z,25.83
2018-08-11T08:43:03.942Z,25.90
2018-08-11T08:44:03.893Z,25.94
2018-08-11T08:45:03.831Z,26.01
2018-08-11T08:46:03.763Z,26.96
2018-08-11T08:47:03.673Z,27.34
2018-08-11T08:48:03.622Z,27.91
2018-08-11T08:49:03.525Z,27.91
2018-08-11T08:50:03.453Z,27.03
2018-08-11T08:51:03.406Z,26.06
2018-08-11T08:52:03.299Z,26.35
2018-08-11T08:53:03.423Z,26.49
2018-08-11T08:54:03.190Z,25.24
2018-08-11T08:55:03.109Z,24.15
2018-08-11T08:56:03.034Z,23.67
2018-08-11T08:57:02.966Z,22.72
2018-08-11T08:58:02.926Z,22.82
2018-08-11T08:59:02.844Z,23.57
2018-08-11T09:00:02.761Z,24.31
2018-08-11T09:01:02.684Z,25.34
2018-08-11T09:02:02.625Z,26.39
2018-08-11T09:03:02.535Z,26.97
2018-08-11T09:05:44.766Z,27.05
2018-08-11T09:06:44.672Z,26.88
2018-08-11T09:07:44.605Z,26.61
2018-08-11T09:08:45.568Z,26.87
2018-08-11T09:09:44.478Z,27.42
2018-08-11T09:10:44.391Z,27.31
2018-08-11T09:11:44.408Z,27.15
2018-08-11T09:12:44.260Z,27.74
2018-08-11T09:13:44.188Z,27.93
2018-08-11T09:14:44.134Z,28.18
2018-08-11T09:15:44.052Z,26.83
2018-08-11T09:16:45.012Z,27.45
2018-08-11T09:17:43.891Z,27.87
2018-08-11T09:18:43.843Z,28.03
2018-08-11T09:19:43.755Z,28.55
2018-08-11T09:20:43.722Z,28.52
2018-08-11T09:21:43.654Z,28.24
2018-08-11T09:22:43.554Z,28.43
2018-08-11T09:23:43.478Z,28.21
2018-08-11T09:24:43.481Z,28.36
2018-08-11T09:25:43.342Z,27.03
2018-08-11T09:28:25.258Z,26.88
2018-08-11T09:29:25.198Z,27.58
2018-08-11T09:30:25.135Z,27.93
2018-08-11T09:31:25.069Z,27.34
2018-08-11T09:32:24.968Z,27.91
2018-08-11T09:35:07.357Z,27.95
2018-08-11T09:36:07.188Z,28.55
2018-08-11T09:37:07.150Z,27.99
2018-08-11T09:38:07.052Z,26.32
2018-08-11T09:39:07.020Z,24.59
2018-08-11T09:40:06.937Z,23.97
2018-08-11T09:41:06.890Z,23.56
2018-08-11T09:42:06.910Z,23.34
2018-08-11T09:43:06.704Z,23.25
2018-08-11T09:44:06.727Z,23.04
2018-08-11T09:45:06.579Z,22.76
2018-08-11T09:46:07.601Z,22.76
2018-08-11T09:47:06.436Z,24.19
2018-08-11T09:48:06.389Z,25.29
2018-08-11T09:49:06.316Z,26.03
2018-08-11T09:50:06.233Z,26.12
2018-08-11T09:51:06.175Z,26.97
2018-08-11T09:53:48.263Z,27.30
2018-08-11T09:54:48.195Z,25.09
2018-08-11T09:55:48.163Z,23.60
2018-08-11T09:56:48.069Z,22.67
2018-08-11T09:57:47.980Z,23.07
2018-08-11T09:58:48.016Z,22.66
2018-08-11T09:59:47.861Z,22.19
2018-08-11T10:00:47.857Z,22.20
2018-08-11T10:01:47.809Z,21.90
2018-08-11T10:02:47.634Z,21.52
2018-08-11T10:03:47.591Z,21.27
2018-08-11T10:06:29.783Z,21.01
2018-08-11T10:07:29.705Z,21.16
2018-08-11T10:08:29.621Z,21.08
2018-08-11T10:09:29.567Z,20.98
2018-08-11T10:10:29.553Z,20.98
2018-08-11T10:11:29.445Z,21.12
2018-08-11T10:12:29.326Z,21.33
2018-08-11T10:15:11.264Z,24.68
2018-08-11T10:16:11.207Z,25.27
2018-08-11T10:17:11.139Z,25.76
2018-08-11T10:18:11.056Z,26.71
2018-08-11T10:19:10.990Z,26.86
2018-08-11T10:20:10.925Z,26.53
2018-08-11T10:21:10.833Z,27.33
2018-08-11T10:22:11.848Z,27.88
2018-08-11T10:23:10.681Z,27.96
2018-08-11T10:24:10.606Z,28.15
2018-08-11T10:25:10.534Z,28.94
2018-08-11T10:26:10.471Z,29.12
2018-08-11T10:27:10.427Z,28.20
2018-08-11T10:28:10.328Z,27.45
2018-08-11T10:29:10.258Z,26.24
2018-08-11T10:30:10.200Z,25.07
2018-08-11T10:31:10.114Z,23.89
2018-08-11T10:32:10.065Z,23.74
2018-08-11T10:33:09.976Z,23.60
2018-08-11T10:34:09.911Z,23.90
2018-08-11T10:35:09.852Z,24.48
2018-08-11T10:36:09.879Z,23.64
2018-08-11T10:37:09.756Z,23.62
2018-08-11T10:39:51.815Z,24.37
2018-08-11T10:40:51.722Z,24.37
2018-08-11T10:41:51.656Z,24.19
2018-08-11T10:42:51.602Z,24.09
2018-08-11T10:43:51.489Z,24.05
2018-08-11T10:46:33.820Z,26.73
2018-08-11T10:47:33.744Z,27.12
2018-08-11T10:48:33.638Z,27.83
2018-08-11T10:49:33.582Z,27.65
2018-08-11T10:50:33.497Z,27.13
2018-08-11T10:51:33.427Z,27.59
2018-08-11T10:52:33.379Z,26.69
2018-08-11T10:53:33.335Z,26.23
2018-08-11T10:54:33.216Z,25.36
2018-08-11T10:55:33.146Z,24.64
2018-08-11T10:56:33.067Z,24.84
2018-08-11T10:57:33.090Z,25.79
2018-08-11T10:58:32.939Z,25.60
2018-08-11T10:59:32.864Z,24.79
2018-08-11T11:00:32.787Z,24.55
2018-08-11T11:01:32.727Z,24.93
2018-08-11T11:02:32.678Z,23.92
2018-08-11T11:03:33.600Z,23.87
2018-08-11T11:04:32.530Z,25.14
2018-08-11T11:07:14.801Z,26.56
2018-08-11T11:08:14.782Z,27.18
2018-08-11T11:09:14.661Z,26.78
2018-08-11T11:10:14.589Z,25.93
2018-08-11T11:11:14.513Z,25.46
2018-08-11T11:12:14.440Z,25.38
2018-08-11T11:13:14.548Z,25.04
2018-08-11T11:14:14.383Z,24.94
2018-08-11T11:15:14.218Z,24.86
2018-08-11T11:16:14.164Z,24.90
2018-08-11T11:17:14.111Z,24.56
2018-08-11T11:18:14.042Z,24.37
2018-08-11T11:19:13.944Z,25.44
2018-08-11T11:20:13.895Z,25.05
2018-08-11T11:21:13.815Z,24.68
2018-08-11T11:23:55.818Z,25.63
2018-08-11T11:24:55.755Z,26.71
2018-08-11T11:25:55.673Z,27.01
2018-08-11T11:26:55.590Z,26.03
2018-08-11T11:27:55.528Z,25.23
2018-08-11T11:28:56.469Z,24.83
2018-08-11T11:29:55.361Z,24.59
2018-08-11T11:30:55.317Z,24.16
2018-08-11T11:31:55.241Z,23.82
2018-08-11T11:32:55.171Z,23.87
2018-08-11T11:33:55.131Z,23.81
2018-08-11T11:34:55.196Z,23.67
2018-08-11T11:35:54.965Z,23.75
2018-08-11T11:36:54.903Z,23.89
2018-08-11T11:37:54.820Z,25.11
2018-08-11T11:38:54.724Z,25.60
2018-08-11T11:39:54.673Z,25.91
2018-08-11T11:40:54.589Z,26.47
2018-08-11T11:41:54.516Z,26.68
2018-08-11T11:42:54.455Z,27.35
2018-08-11T11:43:54.397Z,27.45
2018-08-11T11:44:54.534Z,27.05
2018-08-11T11:45:54.507Z,27.27
2018-08-11T11:46:54.564Z,27.48
2018-08-11T11:47:54.729Z,26.51
2018-08-11T11:48:54.016Z,26.69
2018-08-11T11:49:53.953Z,25.97
2018-08-11T11:50:53.898Z,25.51
2018-08-11T11:51:53.787Z,25.38
2018-08-11T11:52:53.736Z,25.89
2018-08-11T11:53:53.653Z,26.31
2018-08-11T11:54:53.626Z,26.35
2018-08-11T11:55:53.703Z,26.50
2018-08-11T11:56:53.454Z,27.38
2018-08-11T11:57:53.378Z,27.33
2018-08-11T11:58:53.309Z,26.98
2018-08-11T11:59:53.292Z,27.08
2018-08-11T12:00:53.200Z,27.28
2018-08-11T12:01:53.154Z,26.98
2018-08-11T12:02:53.028Z,27.03
2018-08-11T12:03:52.956Z,27.45
2018-08-11T12:04:52.901Z,26.81
2018-08-11T12:05:52.900Z,26.69
2018-08-11T12:06:52.785Z,26.97
2018-08-11T12:07:52.683Z,27.15
2018-08-11T12:08:52.617Z,26.79
2018-08-11T12:09:52.558Z,27.20
2018-08-11T12:10:52.520Z,27.33
2018-08-11T12:11:52.404Z,27.06
2018-08-11T12:12:52.363Z,27.08
2018-08-11T12:13:52.256Z,26.98
2018-08-11T12:14:52.199Z,27.02
2018-08-11T12:15:52.136Z,26.54
2018-08-11T12:16:52.163Z,25.89
2018-08-11T12:17:51.972Z,25.71
2018-08-11T12:18:51.919Z,25.85
2018-08-11T12:19:51.831Z,25.64
2018-08-11T12:20:51.767Z,25.53
2018-08-11T12:21:51.724Z,25.05
2018-08-11T12:22:51.602Z,24.82
2018-08-11T12:23:51.529Z,24.86
2018-08-11T12:24:51.468Z,25.05
2018-08-11T12:25:51.413Z,25.23
2018-08-11T12:26:51.349Z,25.34
2018-08-11T12:27:51.235Z,25.27
2018-08-11T12:28:51.168Z,25.24
2018-08-11T12:29:51.096Z,25.12
2018-08-11T12:32:33.350Z,25.07
2018-08-11T12:33:33.269Z,25.08
2018-08-11T12:34:33.174Z,25.17
2018-08-11T12:35:33.182Z,25.24
2018-08-11T12:36:33.066Z,25.72
2018-08-11T12:37:32.978Z,25.91
2018-08-11T12:38:32.914Z,25.48
2018-08-11T12:39:32.823Z,24.97
2018-08-11T12:40:32.744Z,23.89
2018-08-11T12:41:32.659Z,23.96
2018-08-11T12:42:32.583Z,24.04
2018-08-11T12:43:32.535Z,23.96
2018-08-11T12:44:32.421Z,23.78
2018-08-11T12:45:32.405Z,23.53
2018-08-11T12:46:32.298Z,23.57
2018-08-11T12:47:32.333Z,23.93
2018-08-11T12:48:32.133Z,24.08
2018-08-11T12:49:32.183Z,23.94
2018-08-11T12:50:31.981Z,23.81
2018-08-11T12:51:31.903Z,24.04
2018-08-11T12:52:31.852Z,24.02
2018-08-11T12:53:31.827Z,23.87
2018-08-11T12:54:31.674Z,24.23
2018-08-11T12:55:31.615Z,24.27
2018-08-11T12:56:31.536Z,23.96
2018-08-11T12:57:32.472Z,23.59
2018-08-11T12:58:31.417Z,23.67
2018-08-11T13:01:13.442Z,23.96
2018-08-11T13:02:13.364Z,23.94
2018-08-11T13:03:13.208Z,23.92
2018-08-11T13:04:13.118Z,23.75
2018-08-11T13:05:13.029Z,23.60
2018-08-11T13:07:55.382Z,23.60
2018-08-11T13:08:55.268Z,23.87
2018-08-11T13:09:55.189Z,23.77
2018-08-11T13:10:55.132Z,23.94
2018-08-11T13:11:55.052Z,24.14
2018-08-11T13:12:55.005Z,23.92
2018-08-11T13:13:54.883Z,23.62
2018-08-11T13:14:54.829Z,23.38
2018-08-11T13:15:54.741Z,23.06
2018-08-11T13:16:54.683Z,23.12
2018-08-11T13:17:54.668Z,23.23
2018-08-11T13:18:54.507Z,23.22
2018-08-11T13:19:54.436Z,23.39
2018-08-11T13:20:54.347Z,23.56
2018-08-11T13:21:54.273Z,23.96
2018-08-11T13:22:54.223Z,24.19
2018-08-11T13:23:54.113Z,24.66
2018-08-11T13:24:54.076Z,24.56
2018-08-11T13:25:53.976Z,24.41
2018-08-11T13:26:53.902Z,24.48
2018-08-11T13:27:53.823Z,24.30
2018-08-11T13:28:53.774Z,24.24
2018-08-11T13:29:53.662Z,24.00
2018-08-11T13:30:53.583Z,23.90
2018-08-11T13:31:53.523Z,23.81
2018-08-11T13:32:53.447Z,23.67
2018-08-11T13:33:53.374Z,23.39
2018-08-11T13:34:53.278Z,23.34
2018-08-11T13:35:53.205Z,23.38
2018-08-11T13:36:53.148Z,23.63
2018-08-11T13:37:53.061Z,23.59
2018-08-11T13:38:53.024Z,23.72
2018-08-11T13:39:52.917Z,24.14
2018-08-11T13:40:52.853Z,24.21
2018-08-11T13:41:52.749Z,24.23
2018-08-11T13:42:52.674Z,24.21
2018-08-11T13:43:52.592Z,24.16
2018-08-11T13:44:52.551Z,23.99
2018-08-11T13:45:52.457Z,23.74
2018-08-11T13:46:52.379Z,23.56
2018-08-11T13:47:52.299Z,23.60
2018-08-11T13:48:52.235Z,23.41
2018-08-11T13:49:52.222Z,23.25
2018-08-11T13:50:52.102Z,23.52
2018-08-11T13:51:52.002Z,23.63
2018-08-11T13:52:51.942Z,23.89
2018-08-11T13:53:51.834Z,24.06
2018-08-11T13:54:51.807Z,24.36
2018-08-11T13:55:51.689Z,24.08
2018-08-11T13:56:51.605Z,23.78
2018-08-11T13:57:51.559Z,23.59
2018-08-11T13:58:51.460Z,23.75
2018-08-11T13:59:51.399Z,23.77
2018-08-11T14:00:52.442Z,23.89
2018-08-11T14:01:51.232Z,23.77
2018-08-11T14:02:51.164Z,23.74
2018-08-11T14:03:51.083Z,23.59
2018-08-11T14:04:51.012Z,23.56
2018-08-11T14:05:50.977Z,23.50
2018-08-11T14:06:50.874Z,23.52
2018-08-11T14:07:50.777Z,23.56
2018-08-11T14:10:32.853Z,23.60
2018-08-11T14:11:32.808Z,23.59
2018-08-11T14:12:32.716Z,23.59
2018-08-11T14:13:32.631Z,23.53
2018-08-11T14:14:32.546Z,23.56
2018-08-11T14:15:32.482Z,23.53
2018-08-11T14:16:32.438Z,23.64
2018-08-11T14:17:32.326Z,23.90
2018-08-11T14:18:32.259Z,23.90
2018-08-11T14:19:32.174Z,24.18
2018-08-11T14:20:32.107Z,24.26
2018-08-11T14:23:14.382Z,24.18
2018-08-11T14:25:56.426Z,24.09
2018-08-11T14:26:56.349Z,24.19
2018-08-11T14:27:56.213Z,24.24
2018-08-11T14:28:56.154Z,24.33
2018-08-11T14:29:56.058Z,24.48
2018-08-11T14:30:56.017Z,24.45
2018-08-11T14:31:55.920Z,24.53
2018-08-11T14:32:56.859Z,24.61
2018-08-11T14:33:55.766Z,24.74